createdAt,value
2022-12-03T00:01:19.679Z,100.00
2022-12-03T00:04:21.274Z,100.00
2022-12-03T00:07:22.782Z,100.00
2022-12-03T00:10:24.326Z,100.00
2022-12-03T00:13:25.828Z,100.00
2022-12-03T00:16:27.560Z,100.00
2022-12-03T00:19:29.091Z,100.00
2022-12-03T00:22:30.633Z,100.00
2022-12-03T00:25:32.094Z,100.00
2022-12-03T00:28:33.607Z,100.00
2022-12-03T00:31:35.157Z,100.00
2022-12-03T00:34:36.749Z,100.00
2022-12-03T00:37:38.328Z,100.00
2022-12-03T00:40:39.959Z,100.00
2022-12-03T00:43:41.575Z,100.00
2022-12-03T00:46:43.239Z,100.00
2022-12-03T00:49:44.821Z,100.00
2022-12-03T00:52:46.439Z,100.00
2022-12-03T00:55:50.534Z,100.00
2022-12-03T00:58:52.048Z,100.00
2022-12-03T01:01:53.646Z,100.00
2022-12-03T01:04:55.406Z,100.00
2022-12-03T01:07:57.284Z,100.00
2022-12-03T01:10:58.802Z,100.00
2022-12-03T01:14:00.360Z,100.00
2022-12-03T01:17:01.882Z,100.00
2022-12-03T01:20:05.392Z,100.00
2022-12-03T01:23:06.936Z,100.00
2022-12-03T01:26:08.422Z,100.00
2022-12-03T01:29:10.043Z,100.00
2022-12-03T01:32:17.445Z,100.00
2022-12-03T01:35:18.920Z,100.00
2022-12-03T01:38:20.640Z,100.00
2022-12-03T01:41:24.296Z,100.00
2022-12-03T01:44:28.526Z,100.00
2022-12-03T01:47:39.248Z,100.00
2022-12-03T01:50:40.726Z,100.00
2022-12-03T01:53:43.734Z,100.00
2022-12-03T01:56:46.283Z,100.00
2022-12-03T01:59:48.478Z,100.00
2022-12-03T02:02:55.051Z,100.00
2022-12-03T02:05:57.088Z,100.00
2022-12-03T02:09:00.236Z,100.00
2022-12-03T02:12:01.789Z,100.00
2022-12-03T02:15:05.061Z,100.00
2022-12-03T02:18:09.028Z,100.00
2022-12-03T02:21:27.244Z,100.00
2022-12-03T02:24:31.845Z,100.00
2022-12-03T02:27:33.382Z,100.00
2022-12-03T02:30:35.641Z,100.00
2022-12-03T02:33:38.291Z,100.00
2022-12-03T02:36:39.994Z,100.00
2022-12-03T02:39:47.234Z,100.00
2022-12-03T02:42:51.163Z,100.00
2022-12-03T02:45:56.471Z,100.00
2022-12-03T02:48:59.080Z,100.00
2022-12-03T02:52:00.611Z,100.00
2022-12-03T02:55:03.616Z,100.00
2022-12-03T02:58:05.912Z,100.00
2022-12-03T03:01:08.464Z,100.00
2022-12-03T03:04:10.136Z,100.00
2022-12-03T03:07:11.880Z,100.00
2022-12-03T03:10:15.715Z,100.00
2022-12-03T03:13:19.568Z,100.00
2022-12-03T03:16:21.158Z,100.00
2022-12-03T03:19:25.169Z,100.00
2022-12-03T03:22:38.970Z,100.00
2022-12-03T03:25:43.728Z,100.00
2022-12-03T03:28:48.949Z,100.00
2022-12-03T03:31:50.532Z,100.00
2022-12-03T03:34:52.963Z,100.00
2022-12-03T03:37:56.653Z,100.00
2022-12-03T03:41:00.169Z,100.00
2022-12-03T03:44:03.910Z,100.00
2022-12-03T03:47:05.827Z,100.00
2022-12-03T03:50:09.853Z,100.00
2022-12-03T03:53:12.611Z,100.00
2022-12-03T03:56:16.523Z,100.00
2022-12-03T03:59:18.950Z,100.00
2022-12-03T04:02:22.449Z,100.00
2022-12-03T04:05:25.256Z,100.00
2022-12-03T04:08:26.827Z,100.00
2022-12-03T04:11:46.954Z,100.00
2022-12-03T04:14:48.734Z,100.00
2022-12-03T04:18:10.230Z,100.00
2022-12-03T04:21:41.952Z,100.00
2022-12-03T04:24:43.558Z,100.00
2022-12-03T04:28:03.524Z,100.00
2022-12-03T04:31:25.106Z,100.00
2022-12-03T04:34:45.336Z,100.00
2022-12-03T04:37:46.893Z,100.00
2022-12-03T04:41:00.833Z,100.00
2022-12-03T04:44:20.671Z,100.00
2022-12-03T04:47:22.421Z,100.00
2022-12-03T04:50:24.194Z,100.00
2022-12-03T04:53:25.696Z,100.00
2022-12-03T04:56:27.210Z,100.00
2022-12-03T04:59:29.010Z,100.00
2022-12-03T05:02:30.637Z,100.00
2022-12-03T05:05:32.244Z,100.00
2022-12-03T05:08:33.760Z,100.00
2022-12-03T05:11:35.464Z,100.00
2022-12-03T05:14:37.010Z,100.00
2022-12-03T05:17:38.508Z,100.00
2022-12-03T05:20:45.845Z,100.00
2022-12-03T05:23:52.996Z,100.00
2022-12-03T05:26:54.532Z,100.00
2022-12-03T05:29:56.092Z,100.00
2022-12-03T05:32:57.730Z,100.00
2022-12-03T05:35:59.388Z,100.00
2022-12-03T05:39:00.948Z,100.00
2022-12-03T05:42:21.286Z,100.00
2022-12-03T05:45:27.943Z,100.00
2022-12-03T05:48:29.408Z,100.00
2022-12-03T05:51:30.980Z,100.00
2022-12-03T05:54:32.714Z,100.00
2022-12-03T05:57:34.389Z,100.00
2022-12-03T06:00:42.539Z,100.00
2022-12-03T06:03:44.800Z,100.00
2022-12-03T06:06:46.483Z,100.00
2022-12-03T06:09:48.048Z,100.00
2022-12-03T06:12:50.341Z,100.00
2022-12-03T06:15:51.911Z,100.00
2022-12-03T06:18:53.472Z,100.00
2022-12-03T06:21:55.487Z,100.00
2022-12-03T06:25:00.696Z,100.00
2022-12-03T06:28:06.130Z,100.00
2022-12-03T06:31:08.294Z,100.00
2022-12-03T06:34:09.794Z,100.00
2022-12-03T06:37:11.299Z,100.00
2022-12-03T06:40:13.457Z,100.00
2022-12-03T06:43:14.980Z,100.00
2022-12-03T06:46:16.742Z,100.00
2022-12-03T06:49:18.349Z,100.00
2022-12-03T06:52:19.920Z,100.00
2022-12-03T06:55:21.468Z,100.00
2022-12-03T06:58:22.958Z,100.00
2022-12-03T07:01:24.620Z,100.00
2022-12-03T07:04:26.169Z,100.00
2022-12-03T07:07:27.752Z,100.00
2022-12-03T07:10:29.329Z,100.00
2022-12-03T07:13:30.864Z,100.00
2022-12-03T07:16:32.985Z,100.00
2022-12-03T07:19:34.604Z,100.00
2022-12-03T07:22:36.265Z,100.00
2022-12-03T07:25:37.901Z,100.00
2022-12-03T07:28:39.447Z,100.00
2022-12-03T07:31:41.019Z,100.00
2022-12-03T07:34:42.619Z,100.00
2022-12-03T07:37:44.355Z,100.00
2022-12-03T07:40:46.069Z,100.00
2022-12-03T07:43:47.681Z,100.00
2022-12-03T07:46:49.473Z,100.00
2022-12-03T07:49:51.052Z,100.00
2022-12-03T07:52:52.564Z,100.00
2022-12-03T07:55:54.174Z,100.00
2022-12-03T07:58:55.844Z,100.00
2022-12-03T08:01:57.487Z,100.00
2022-12-03T08:04:59.006Z,100.00
2022-12-03T08:08:01.252Z,100.00
2022-12-03T08:11:03.102Z,100.00
2022-12-03T08:14:11.561Z,100.00
2022-12-03T08:17:14.526Z,100.00
2022-12-03T08:20:22.393Z,100.00
2022-12-03T08:23:25.242Z,100.00
2022-12-03T08:26:28.127Z,100.00
2022-12-03T08:29:31.350Z,100.00
2022-12-03T08:32:32.871Z,100.00
2022-12-03T08:35:34.919Z,100.00
2022-12-03T08:38:36.595Z,100.00
2022-12-03T08:41:56.569Z,100.00
2022-12-03T08:45:40.497Z,100.00
2022-12-03T08:48:48.423Z,100.00
2022-12-03T08:51:57.251Z,100.00
2022-12-03T08:55:00.003Z,100.00
2022-12-03T08:58:14.218Z,100.00
2022-12-03T09:01:28.816Z,100.00
2022-12-03T09:04:46.894Z,100.00
2022-12-03T09:07:48.868Z,100.00
2022-12-03T09:10:50.782Z,100.00
2022-12-03T09:13:52.590Z,100.00
2022-12-03T09:16:55.860Z,100.00
2022-12-03T09:19:57.690Z,100.00
2022-12-03T09:23:00.319Z,99.01
2022-12-03T09:26:02.177Z,99.21
2022-12-03T09:29:10.564Z,98.81
2022-12-03T09:32:18.157Z,100.00
2022-12-03T09:35:20.241Z,99.78
2022-12-03T09:38:21.715Z,99.25
2022-12-03T09:41:24.007Z,98.42
2022-12-03T09:44:29.338Z,98.35
2022-12-03T09:47:32.517Z,98.01
2022-12-03T09:50:39.821Z,97.61
2022-12-03T09:53:41.755Z,96.98
2022-12-03T09:56:46.884Z,96.76
2022-12-03T09:59:51.941Z,98.42
2022-12-03T10:02:57.300Z,98.09
2022-12-03T10:05:59.144Z,98.31
2022-12-03T10:09:01.045Z,98.02
2022-12-03T10:12:02.598Z,97.23
2022-12-03T10:15:05.106Z,96.86
2022-12-03T10:18:30.646Z,96.72
2022-12-03T10:21:37.091Z,97.21
2022-12-03T10:24:39.039Z,98.41
2022-12-03T10:27:41.291Z,98.61
2022-12-03T10:30:53.582Z,98.37
2022-12-03T10:33:58.277Z,97.54
2022-12-03T10:37:18.429Z,96.62
2022-12-03T10:40:25.330Z,96.97
2022-12-03T10:43:28.029Z,96.79
2022-12-03T10:46:29.684Z,96.57
2022-12-03T10:49:31.502Z,96.27
2022-12-03T10:52:33.194Z,95.32
2022-12-03T10:55:39.267Z,95.36
2022-12-03T10:58:41.723Z,95.26
2022-12-03T11:01:43.766Z,94.97
2022-12-03T11:04:45.464Z,94.30
2022-12-03T11:07:47.574Z,95.00
2022-12-03T11:11:03.478Z,94.70
2022-12-03T11:14:05.627Z,95.43
2022-12-03T11:17:09.784Z,95.34
2022-12-03T11:20:22.959Z,93.55
2022-12-03T11:23:44.665Z,95.36
2022-12-03T11:26:46.242Z,94.69
2022-12-03T11:29:58.871Z,93.78
2022-12-03T11:33:01.133Z,93.99
2022-12-03T11:36:02.688Z,94.21
2022-12-03T11:39:04.251Z,93.09
2022-12-03T11:42:36.986Z,94.07
2022-12-03T11:45:38.744Z,93.32
2022-12-03T11:48:47.959Z,92.16
2022-12-03T11:51:49.984Z,93.35
2022-12-03T11:54:56.456Z,95.27
2022-12-03T11:58:04.105Z,94.65
2022-12-03T12:01:07.628Z,93.03
2022-12-03T12:04:34.682Z,92.42
2022-12-03T12:07:37.163Z,92.72
2022-12-03T12:10:43.449Z,91.64
2022-12-03T12:13:59.590Z,90.16
2022-12-03T12:17:03.232Z,90.06
2022-12-03T12:20:24.788Z,90.36
2022-12-03T12:23:28.898Z,89.18
2022-12-03T12:26:30.395Z,89.90
2022-12-03T12:29:32.089Z,90.63
2022-12-03T12:33:12.363Z,91.28
2022-12-03T12:36:13.886Z,91.32
2022-12-03T12:39:15.943Z,91.41
2022-12-03T12:42:37.982Z,91.65
2022-12-03T12:45:41.990Z,91.94
2022-12-03T12:48:43.617Z,91.65
2022-12-03T12:51:49.034Z,91.63
2022-12-03T12:54:50.620Z,90.91
2022-12-03T12:57:52.326Z,91.73
2022-12-03T13:00:58.205Z,91.12
2022-12-03T13:03:59.989Z,91.59
2022-12-03T13:07:01.470Z,91.05
2022-12-03T13:10:20.390Z,91.73
2022-12-03T13:13:25.001Z,92.80
2022-12-03T13:16:30.689Z,93.28
2022-12-03T13:19:43.331Z,93.22
2022-12-03T13:22:49.011Z,93.89
2022-12-03T13:26:06.604Z,93.57
2022-12-03T13:29:16.586Z,92.68
2022-12-03T13:32:31.076Z,93.54
2022-12-03T13:35:36.092Z,93.62
2022-12-03T13:38:37.636Z,93.97
2022-12-03T13:42:02.175Z,93.90
2022-12-03T13:45:27.099Z,94.15
2022-12-03T13:48:35.575Z,95.22
2022-12-03T13:51:37.116Z,95.35
2022-12-03T13:54:39.812Z,95.53
2022-12-03T13:57:41.393Z,96.10
2022-12-03T14:00:43.075Z,96.28
2022-12-03T14:03:44.722Z,96.22
2022-12-03T14:06:46.253Z,96.07
2022-12-03T14:09:47.987Z,96.39
2022-12-03T14:12:49.757Z,95.83
2022-12-03T14:15:51.305Z,96.06
2022-12-03T14:18:52.780Z,96.12
2022-12-03T14:21:54.331Z,95.92
2022-12-03T14:24:56.995Z,96.07
2022-12-03T14:28:00.703Z,95.85
2022-12-03T14:31:02.272Z,95.92
2022-12-03T14:34:03.828Z,96.29
2022-12-03T14:37:05.441Z,96.81
2022-12-03T14:40:08.908Z,96.92
2022-12-03T14:43:10.664Z,96.50
2022-12-03T14:46:12.331Z,97.16
2022-12-03T14:49:14.484Z,97.77
2022-12-03T14:52:16.117Z,97.37
2022-12-03T14:55:17.641Z,97.38
2022-12-03T14:58:19.152Z,98.19
2022-12-03T15:01:20.935Z,98.09
2022-12-03T15:04:22.693Z,98.59
2022-12-03T15:07:24.423Z,98.99
2022-12-03T15:10:27.965Z,99.64
2022-12-03T15:13:29.621Z,99.84
2022-12-03T15:16:31.334Z,100.00
2022-12-03T15:19:33.238Z,100.00
2022-12-03T15:22:34.784Z,100.00
2022-12-03T15:25:36.300Z,100.00
2022-12-03T15:28:37.869Z,100.00
2022-12-03T15:31:39.998Z,100.00
2022-12-03T15:34:41.611Z,100.00
2022-12-03T15:37:46.422Z,100.00
2022-12-03T15:40:48.022Z,100.00
2022-12-03T15:43:52.072Z,100.00
2022-12-03T15:46:53.600Z,100.00
2022-12-03T15:49:55.288Z,100.00
2022-12-03T15:52:57.124Z,100.00
2022-12-03T15:55:58.598Z,100.00
2022-12-03T15:59:00.164Z,100.00
2022-12-03T16:02:01.865Z,100.00
2022-12-03T16:05:09.668Z,100.00
2022-12-03T16:08:11.236Z,100.00
2022-12-03T16:11:14.621Z,100.00
2022-12-03T16:14:16.192Z,100.00
2022-12-03T16:17:17.812Z,100.00
2022-12-03T16:20:19.601Z,100.00
2022-12-03T16:23:21.131Z,100.00
2022-12-03T16:26:22.987Z,100.00
2022-12-03T16:29:24.454Z,100.00
2022-12-03T16:32:35.546Z,100.00
2022-12-03T16:35:37.220Z,100.00
2022-12-03T16:38:53.821Z,100.00
2022-12-03T16:41:55.326Z,100.00
2022-12-03T16:45:02.777Z,100.00
2022-12-03T16:48:04.630Z,100.00
2022-12-03T16:51:06.963Z,100.00
2022-12-03T16:54:08.545Z,100.00
2022-12-03T16:57:10.082Z,100.00
2022-12-03T17:00:12.135Z,100.00
2022-12-03T17:03:13.776Z,100.00
2022-12-03T17:06:15.421Z,100.00
2022-12-03T17:09:17.010Z,100.00
2022-12-03T17:12:18.609Z,100.00
2022-12-03T17:15:20.235Z,100.00
2022-12-03T17:18:22.912Z,100.00
2022-12-03T17:21:24.509Z,100.00
2022-12-03T17:24:26.099Z,100.00
2022-12-03T17:27:27.708Z,100.00
2022-12-03T17:30:29.249Z,100.00
2022-12-03T17:33:30.763Z,100.00
2022-12-03T17:36:32.242Z,100.00
2022-12-03T17:39:33.779Z,100.00
2022-12-03T17:42:35.516Z,100.00
2022-12-03T17:45:37.082Z,100.00
2022-12-03T17:48:40.492Z,100.00
2022-12-03T17:51:42.277Z,100.00
2022-12-03T17:55:09.012Z,100.00
2022-12-03T17:58:06.266Z,100.00
2022-12-03T18:01:10.339Z,100.00
2022-12-03T18:04:12.142Z,100.00
2022-12-03T18:07:13.752Z,100.00
2022-12-03T18:10:15.420Z,100.00
2022-12-03T18:13:17.087Z,100.00
2022-12-03T18:16:18.672Z,100.00
2022-12-03T18:19:20.468Z,100.00
2022-12-03T18:22:22.189Z,100.00
2022-12-03T18:25:24.967Z,100.00
2022-12-03T18:28:26.557Z,100.00
2022-12-03T18:31:28.178Z,100.00
2022-12-03T18:34:37.402Z,100.00
2022-12-03T18:37:39.704Z,100.00
2022-12-03T18:40:43.431Z,100.00
2022-12-03T18:43:55.416Z,100.00
2022-12-03T18:46:57.723Z,100.00
2022-12-03T18:49:59.521Z,100.00
2022-12-03T18:53:01.264Z,100.00
2022-12-03T18:56:02.714Z,100.00
2022-12-03T18:59:06.653Z,100.00
2022-12-03T19:02:26.688Z,100.00
2022-12-03T19:05:36.643Z,100.00
2022-12-03T19:08:39.631Z,100.00
2022-12-03T19:11:41.368Z,100.00
2022-12-03T19:14:43.251Z,100.00
2022-12-03T19:17:49.203Z,100.00
2022-12-03T19:20:50.758Z,100.00
2022-12-03T19:24:22.763Z,100.00
2022-12-03T19:27:14.208Z,100.00
2022-12-03T19:30:15.894Z,100.00
2022-12-03T19:33:18.280Z,100.00
2022-12-03T19:36:28.570Z,100.00
2022-12-03T19:39:30.190Z,100.00
2022-12-03T19:42:31.737Z,100.00
2022-12-03T19:45:36.454Z,100.00
2022-12-03T19:48:39.815Z,100.00
2022-12-03T19:51:41.429Z,100.00
2022-12-03T19:54:43.475Z,100.00
2022-12-03T19:57:45.759Z,100.00
2022-12-03T20:00:47.293Z,100.00
2022-12-03T20:03:51.475Z,100.00
2022-12-03T20:06:53.112Z,100.00
2022-12-03T20:09:55.178Z,100.00
2022-12-03T20:12:58.727Z,100.00
2022-12-03T20:16:09.089Z,100.00
2022-12-03T20:19:13.077Z,100.00
2022-12-03T20:22:14.814Z,100.00
2022-12-03T20:25:16.460Z,100.00
2022-12-03T20:28:18.115Z,100.00
2022-12-03T20:31:21.962Z,100.00
2022-12-03T20:34:23.535Z,100.00
2022-12-03T20:37:25.155Z,100.00
2022-12-03T20:40:26.727Z,100.00
2022-12-03T20:43:28.702Z,100.00
2022-12-03T20:46:31.336Z,100.00
2022-12-03T20:49:33.024Z,100.00
2022-12-03T20:52:34.564Z,100.00
2022-12-03T20:55:36.114Z,100.00
2022-12-03T20:58:40.661Z,100.00
2022-12-03T21:01:43.531Z,100.00
2022-12-03T21:04:45.119Z,100.00
2022-12-03T21:07:47.915Z,100.00
2022-12-03T21:10:49.621Z,100.00
2022-12-03T21:13:51.544Z,100.00
2022-12-03T21:17:07.847Z,100.00
2022-12-03T21:20:10.601Z,100.00
2022-12-03T21:23:13.318Z,100.00
2022-12-03T21:26:18.646Z,100.00
2022-12-03T21:29:20.367Z,100.00
2022-12-03T21:32:21.878Z,100.00
2022-12-03T21:35:23.532Z,100.00
2022-12-03T21:38:25.926Z,100.00
2022-12-03T21:41:27.434Z,100.00
2022-12-03T21:44:29.016Z,100.00
2022-12-03T21:47:36.505Z,100.00
2022-12-03T21:50:38.926Z,100.00
2022-12-03T21:53:43.579Z,100.00
2022-12-03T21:56:45.732Z,100.00
2022-12-03T21:59:47.270Z,100.00
2022-12-03T22:02:48.895Z,100.00
2022-12-03T22:05:50.705Z,100.00
2022-12-03T22:08:52.293Z,100.00
2022-12-03T22:11:56.806Z,100.00
2022-12-03T22:14:58.420Z,100.00
2022-12-03T22:17:59.962Z,100.00
2022-12-03T22:21:06.306Z,100.00
2022-12-03T22:24:08.098Z,100.00
2022-12-03T22:27:09.611Z,100.00
2022-12-03T22:30:11.416Z,100.00
2022-12-03T22:33:12.923Z,100.00
2022-12-03T22:36:20.501Z,100.00
2022-12-03T22:39:23.307Z,100.00
2022-12-03T22:42:24.806Z,100.00
2022-12-03T22:45:26.376Z,100.00
2022-12-03T22:48:27.997Z,100.00
2022-12-03T22:51:30.209Z,100.00
2022-12-03T22:54:31.835Z,100.00
2022-12-03T22:57:33.399Z,100.00
2022-12-03T23:00:38.417Z,100.00
2022-12-03T23:03:40.117Z,100.00
2022-12-03T23:06:43.482Z,100.00
2022-12-03T23:09:45.026Z,100.00
2022-12-03T23:12:46.517Z,100.00
2022-12-03T23:15:50.305Z,100.00
2022-12-03T23:18:52.160Z,100.00
2022-12-03T23:21:53.706Z,100.00
2022-12-03T23:24:55.294Z,100.00
2022-12-03T23:27:56.865Z,100.00
2022-12-03T23:30:59.399Z,100.00
2022-12-03T23:34:01.179Z,100.00
2022-12-03T23:37:02.864Z,100.00
2022-12-03T23:40:04.965Z,100.00
2022-12-03T23:43:06.684Z,100.00
2022-12-03T23:46:11.303Z,100.00
2022-12-03T23:49:13.184Z,100.00
2022-12-03T23:52:14.736Z,100.00
2022-12-03T23:55:16.385Z,100.00
2022-12-03T23:58:18.103Z,100.00
